Time;durP1;ratioP1;P1;durP2;ratioP2;P2;SDS_P1;SDS_P2;PMS_P1;PMS_P2;Temp;Humidity;BMP_temperature;BMP_pressure;BME280_temperature;BME280_humidity;BME280_pressure;Samples;Min_cycle;Max_cycle;Signal;HPM_P1;HPM_P2
2022/04/08 00:01:59;;;;;;;1.95;0.90;;;;;;;9.35;60.87;97755.47;4994543;28;20034;-83
2022/04/08 00:04:26;;;;;;;4.90;1.00;;;;;;;9.23;61.99;97796.66;4995856;28;20085;-82
2022/04/08 00:06:53;;;;;;;7.50;1.25;;;;;;;9.10;61.95;97771.75;4995682;28;20498;-82
2022/04/08 00:09:20;;;;;;;1.55;0.90;;;;;;;8.77;64.14;97801.22;4994348;28;20040;-81
2022/04/08 00:11:45;;;;;;;5.05;1.30;;;;;;;8.51;66.26;97790.31;4994259;28;20472;-81
2022/04/08 00:14:11;;;;;;;2.72;0.93;;;;;;;8.44;66.83;97787.25;4995524;28;20028;-81
2022/04/08 00:16:38;;;;;;;2.72;0.77;;;;;;;8.37;64.53;97753.81;4995483;28;20026;-81
2022/04/08 00:19:04;;;;;;;6.03;1.08;;;;;;;8.35;62.82;97751.50;4983778;28;20142;-82
2022/04/08 00:21:30;;;;;;;8.77;1.00;;;;;;;8.51;64.48;97755.50;4995552;28;20026;-79
2022/04/08 00:23:55;;;;;;;5.75;0.90;;;;;;;8.60;64.48;97772.19;4994234;28;20027;-82
2022/04/08 00:26:23;;;;;;;6.18;1.10;;;;;;;8.54;64.34;97785.66;4995204;28;20026;-82
2022/04/08 00:28:48;;;;;;;3.15;0.98;;;;;;;8.43;65.69;97786.53;4994331;28;20027;-79
2022/04/08 00:31:15;;;;;;;2.92;0.93;;;;;;;8.41;66.37;97796.84;4995469;28;20030;-82
2022/04/08 00:33:41;;;;;;;4.57;1.10;;;;;;;8.43;65.70;97792.19;4993606;28;20510;-81
2022/04/08 00:36:08;;;;;;;5.63;1.23;;;;;;;8.42;66.15;97778.53;4995232;28;20034;-81
2022/04/08 00:38:33;;;;;;;2.88;0.98;;;;;;;8.37;66.27;97793.50;4995180;28;20479;-79
2022/04/08 00:40:59;;;;;;;5.57;1.30;;;;;;;8.35;66.15;97796.88;4994964;28;20116;-81
2022/04/08 00:43:37;;;;;;;3.40;0.80;;;;;;;8.29;66.23;97798.94;5010045;28;20034;-81
2022/04/08 00:46:04;;;;;;;2.97;0.95;;;;;;;8.24;66.41;97792.00;4994068;28;20058;-80
2022/04/08 00:48:30;;;;;;;2.45;1.10;;;;;;;8.29;66.56;97784.75;5010025;28;20026;-81
2022/04/08 00:50:56;;;;;;;1.52;0.93;;;;;;;8.31;66.00;97781.44;5009699;28;20447;-81
2022/04/08 00:53:23;;;;;;;4.20;1.17;;;;;;;8.34;65.50;97783.22;4991550;28;20104;-83
2022/04/08 00:55:49;;;;;;;2.03;1.20;;;;;;;8.34;65.80;97786.81;4994914;28;20464;-83
2022/04/08 00:58:15;;;;;;;3.35;1.02;;;;;;;8.33;64.36;97782.47;4977413;28;20053;-83
2022/04/08 01:00:42;;;;;;;5.10;1.05;;;;;;;8.35;64.30;97779.84;4993612;28;20041;-82
2022/04/08 01:03:09;;;;;;;3.70;1.10;;;;;;;8.35;64.96;97785.53;4993821;28;20026;-80
2022/04/08 01:05:35;;;;;;;6.05;1.10;;;;;;;8.36;63.91;97780.63;4993618;28;20044;-83
2022/04/08 01:08:04;;;;;;;5.07;1.40;;;;;;;8.38;64.80;97781.66;4993338;28;20030;-82
2022/04/08 01:10:29;;;;;;;3.33;1.27;;;;;;;8.42;63.76;97782.13;4993286;28;20092;-82
2022/04/08 01:12:56;;;;;;;4.20;1.27;;;;;;;8.42;63.72;97782.13;4993258;28;20030;-82
2022/04/08 01:15:23;;;;;;;2.90;1.10;;;;;;;8.44;64.02;97781.59;5008486;28;20064;-82
2022/04/08 01:17:50;;;;;;;7.00;1.25;;;;;;;8.44;63.33;97779.53;5009744;28;20110;-82
2022/04/08 01:20:24;;;;;;;3.13;1.10;;;;;;;8.42;63.71;97787.81;4994488;28;20030;-81
2022/04/08 01:22:57;;;;;;;2.53;1.10;;;;;;;8.39;63.60;97782.41;4992193;28;20545;-81
2022/04/08 01:25:22;;;;;;;2.78;1.02;;;;;;;8.25;64.23;97787.09;4991869;28;20041;-81
2022/04/08 01:27:47;;;;;;;3.42;1.02;;;;;;;8.21;64.60;97789.47;4975583;28;20026;-82
2022/04/08 01:30:17;;;;;;;3.15;0.70;;;;;;;8.10;64.07;97784.63;4993164;28;20431;-82
2022/04/08 01:32:44;;;;;;;3.97;1.10;;;;;;;8.05;64.82;97782.59;4991953;28;20030;-82
2022/04/08 01:35:09;;;;;;;3.85;0.90;;;;;;;7.97;64.97;97778.78;4991847;28;20104;-82
2022/04/08 01:37:36;;;;;;;3.63;1.10;;;;;;;7.94;65.58;97787.56;4993745;28;20058;-81
2022/04/08 01:40:03;;;;;;;3.78;1.20;;;;;;;7.76;65.17;97789.69;4994643;28;20034;-82
2022/04/08 01:42:29;;;;;;;2.38;1.20;;;;;;;7.73;65.25;97785.06;5009704;28;20132;-83
2022/04/08 01:44:55;;;;;;;4.47;1.13;;;;;;;7.62;65.30;97795.66;5012641;28;20382;-82
2022/04/08 01:47:23;;;;;;;3.03;0.80;;;;;;;7.55;65.71;97788.47;4995054;28;20121;-83
2022/04/08 01:49:49;;;;;;;3.47;1.60;;;;;;;7.47;65.87;97789.53;4995204;28;20105;-83
2022/04/08 01:52:15;;;;;;;3.03;0.95;;;;;;;7.45;65.60;97797.81;4998208;28;20041;-82
2022/04/08 01:54:41;;;;;;;2.28;0.90;;;;;;;7.40;65.65;97799.34;4997990;28;20026;-83
2022/04/08 01:57:07;;;;;;;1.75;0.88;;;;;;;7.35;66.26;97811.47;4995165;28;20147;-82
2022/04/08 01:59:32;;;;;;;4.43;1.35;;;;;;;7.24;66.09;97812.25;5012504;28;20041;-83
2022/04/08 02:02:02;;;;;;;2.70;0.90;;;;;;;7.24;66.28;97823.59;4995050;28;20022;-83
2022/04/08 02:04:28;;;;;;;5.57;1.27;;;;;;;7.15;66.42;97817.44;4994294;28;20476;-83
2022/04/08 02:06:54;;;;;;;4.10;1.13;;;;;;;6.96;66.79;97800.19;4993277;28;20038;-83
2022/04/08 02:09:20;;;;;;;3.20;1.10;;;;;;;7.03;66.95;97824.38;4993295;28;20054;-83
2022/04/08 02:11:47;;;;;;;2.58;0.98;;;;;;;6.98;66.23;97823.09;4994597;28;20034;-83
2022/04/08 02:14:12;;;;;;;3.70;1.08;;;;;;;7.02;65.24;97823.59;4993406;28;20026;-82
2022/04/08 02:16:41;;;;;;;2.05;0.80;;;;;;;7.09;64.00;97822.31;4993421;28;20122;-81
2022/04/08 02:19:07;;;;;;;3.70;1.27;;;;;;;7.13;63.07;97825.66;4994962;28;20061;-83
2022/04/08 02:21:34;;;;;;;3.65;1.80;;;;;;;7.34;61.66;97833.34;4993380;28;20027;-83
2022/04/08 02:24:03;;;;;;;5.93;1.20;;;;;;;7.38;61.31;97830.25;4993582;28;20034;-82
2022/04/08 02:26:29;;;;;;;3.05;0.82;;;;;;;7.43;60.82;97829.47;4993576;28;20030;-82
2022/04/08 02:28:54;;;;;;;2.47;0.93;;;;;;;7.65;59.94;97835.06;4993012;28;20472;-82
2022/04/08 02:31:20;;;;;;;3.38;0.95;;;;;;;7.67;59.55;97840.97;4993314;28;20037;-82
2022/04/08 02:33:45;;;;;;;3.53;1.30;;;;;;;7.67;59.33;97838.16;4994813;28;20065;-83
2022/04/08 02:36:12;;;;;;;4.10;1.40;;;;;;;7.74;59.04;97851.78;4993221;28;20030;-82
2022/04/08 02:38:37;;;;;;;4.90;1.40;;;;;;;7.67;59.00;97846.66;4996317;28;20046;-82
2022/04/08 02:41:04;;;;;;;3.10;1.02;;;;;;;7.78;59.02;97840.19;4994997;28;20054;-82
2022/04/08 02:43:29;;;;;;;3.25;1.00;;;;;;;7.71;58.96;97843.53;4998052;28;20057;-83
2022/04/08 02:45:55;;;;;;;3.58;0.82;;;;;;;7.67;58.87;97843.03;4996353;28;20468;-82
2022/04/08 02:48:21;;;;;;;2.50;1.23;;;;;;;7.69;58.83;97855.41;4997450;28;20029;-82
2022/04/08 02:50:48;;;;;;;2.95;1.25;;;;;;;7.64;59.15;97858.25;4996171;28;20066;-82
2022/04/08 02:53:14;;;;;;;8.77;2.08;;;;;;;7.59;59.63;97865.47;4996804;28;20031;-83
2022/04/08 02:55:40;;;;;;;3.63;1.60;;;;;;;7.58;59.88;97874.50;5012459;28;20026;-82
2022/04/08 02:58:06;;;;;;;6.00;1.75;;;;;;;7.52;60.22;97870.88;4997278;28;20468;-81
2022/04/08 03:00:33;;;;;;;3.38;1.30;;;;;;;7.46;60.79;97884.28;4995949;28;20054;-81
2022/04/08 03:02:58;;;;;;;5.53;1.38;;;;;;;7.47;60.72;97877.34;4994053;28;20050;-81
2022/04/08 03:05:25;;;;;;;4.85;1.38;;;;;;;7.43;60.96;97883.28;4997642;28;20026;-82
2022/04/08 03:07:53;;;;;;;5.57;1.63;;;;;;;7.41;61.76;97885.06;4997201;28;20060;-81
2022/04/08 03:10:19;;;;;;;5.68;1.80;;;;;;;7.35;62.22;97885.84;5012238;28;20033;-82
2022/04/08 03:12:45;;;;;;;3.00;1.80;;;;;;;7.35;63.06;97882.25;4996328;28;20038;-82
2022/04/08 03:15:11;;;;;;;8.60;1.80;;;;;;;7.35;62.57;97887.91;4997583;28;20034;-82
2022/04/08 03:17:38;;;;;;;4.38;2.17;;;;;;;7.27;63.29;97882.00;4998090;28;20041;-82
2022/04/08 03:20:05;;;;;;;3.88;2.05;;;;;;;7.27;63.30;97898.97;4998543;28;20022;-83
2022/04/08 03:22:31;;;;;;;7.40;2.13;;;;;;;7.28;62.33;97888.44;4979459;28;20472;-81
2022/04/08 03:24:57;;;;;;;2.17;1.40;;;;;;;7.52;60.06;97885.06;4996532;28;20088;-83
2022/04/08 03:27:22;;;;;;;4.40;1.88;;;;;;;7.64;59.01;97884.53;4995650;28;20084;-83
2022/04/08 03:29:48;;;;;;;8.10;2.00;;;;;;;7.86;57.25;97889.34;4995567;28;20105;-82
2022/04/08 03:32:14;;;;;;;5.18;1.55;;;;;;;8.04;56.52;97900.09;4995529;28;20029;-83
2022/04/08 03:34:41;;;;;;;2.85;1.80;;;;;;;8.20;55.15;97895.66;4995385;28;20463;-83
2022/04/08 03:37:06;;;;;;;3.92;1.30;;;;;;;8.45;54.67;97888.09;4995321;28;20133;-83
2022/04/08 03:39:32;;;;;;;5.65;1.38;;;;;;;8.52;53.73;97898.91;4995479;28;20061;-83
2022/04/08 03:41:59;;;;;;;4.40;1.30;;;;;;;8.65;54.38;97899.06;4995521;28;20057;-82
2022/04/08 03:44:26;;;;;;;3.83;1.23;;;;;;;8.69;51.68;97899.56;4995166;28;20396;-83
2022/04/08 03:46:52;;;;;;;3.65;1.25;;;;;;;8.87;51.19;97904.63;4995250;28;20109;-86
2022/04/08 03:49:21;;;;;;;3.33;1.45;;;;;;;8.85;52.04;97918.53;4994120;28;20030;-81
2022/04/08 03:51:47;;;;;;;4.57;1.35;;;;;;;8.96;52.15;97920.53;4996473;28;20035;-82
2022/04/08 03:54:14;;;;;;;3.90;1.40;;;;;;;9.03;52.04;97911.44;4996165;28;20039;-81
2022/04/08 03:56:44;;;;;;;5.43;2.25;;;;;;;9.02;51.02;97916.38;5011122;28;20506;-81
2022/04/08 03:59:10;;;;;;;5.88;1.27;;;;;;;9.06;50.36;97919.69;4994862;28;20034;-82
2022/04/08 04:01:37;;;;;;;7.43;1.33;;;;;;;9.10;50.89;97914.50;4994663;28;20046;-82
2022/04/08 04:04:07;;;;;;;4.72;1.45;;;;;;;9.12;50.71;97930.25;4995040;28;20031;-82
2022/04/08 04:06:32;;;;;;;2.97;1.10;;;;;;;9.07;51.02;97929.78;5010871;28;20392;-82
2022/04/08 04:08:58;;;;;;;2.25;1.00;;;;;;;9.12;50.31;97933.88;4994646;28;20029;-82
2022/04/08 04:11:25;;;;;;;6.95;1.10;;;;;;;9.23;49.89;97950.78;4995776;28;20033;-83
2022/04/08 04:13:51;;;;;;;2.75;1.00;;;;;;;9.27;49.70;97950.53;4995888;28;20026;-82
2022/04/08 04:16:17;;;;;;;2.20;1.17;;;;;;;9.24;50.94;97946.66;4994615;28;20026;-81
2022/04/08 04:18:42;;;;;;;7.13;1.23;;;;;;;9.28;49.82;97964.19;4995767;28;20030;-83
2022/04/08 04:21:08;;;;;;;2.58;1.00;;;;;;;9.20;50.67;97968.13;5014882;28;20563;-84
2022/04/08 04:23:35;;;;;;;6.00;1.55;;;;;;;9.23;50.17;97979.19;5014269;28;20037;-83
2022/04/08 04:26:12;;;;;;;1.38;0.98;;;;;;;9.29;50.12;97970.63;5014015;28;20029;-83
2022/04/08 04:28:38;;;;;;;4.55;1.10;;;;;;;9.31;49.53;97968.06;5014397;28;20042;-83
2022/04/08 04:31:04;;;;;;;2.13;0.93;;;;;;;9.24;48.99;97980.75;4994027;28;20026;-83
2022/04/08 04:33:31;;;;;;;4.00;1.35;;;;;;;9.36;49.94;97989.97;4995874;28;20030;-82
2022/04/08 04:35:57;;;;;;;3.70;1.20;;;;;;;9.22;50.63;97972.00;4994094;28;20470;-82
2022/04/08 04:38:23;;;;;;;3.72;0.90;;;;;;;9.23;51.08;97984.88;5001158;28;20072;-82
2022/04/08 04:40:49;;;;;;;3.28;1.05;;;;;;;9.30;51.10;97989.22;4996938;28;20022;-83
2022/04/08 04:43:14;;;;;;;3.28;0.80;;;;;;;9.23;51.77;97990.56;4997202;28;20454;-82
2022/04/08 04:45:39;;;;;;;3.47;1.63;;;;;;;9.24;51.43;98009.16;5013226;28;20025;-81
2022/04/08 04:48:06;;;;;;;4.65;1.20;;;;;;;9.31;51.52;98005.75;5013561;28;20034;-83
2022/04/08 04:50:31;;;;;;;2.00;0.73;;;;;;;9.43;51.86;98023.47;5013407;28;20065;-82
2022/04/08 04:52:57;;;;;;;2.70;0.90;;;;;;;9.43;51.91;98021.41;5013376;28;20045;-82
2022/04/08 04:55:25;;;;;;;1.85;1.10;;;;;;;9.46;52.61;98034.59;4996720;28;20022;-81
2022/04/08 04:57:51;;;;;;;3.58;1.05;;;;;;;9.37;52.93;98022.78;5013400;28;20040;-80
2022/04/08 05:00:19;;;;;;;2.65;1.23;;;;;;;9.37;53.00;98031.28;5014032;28;20109;-77
2022/04/08 05:02:47;;;;;;;3.35;1.10;;;;;;;9.36;53.71;98004.94;5013488;28;20026;-76
2022/04/08 05:05:12;;;;;;;1.90;1.45;;;;;;;9.34;53.44;98035.94;5012617;28;20038;-78
2022/04/08 05:07:38;;;;;;;1.80;0.80;;;;;;;9.42;53.28;98045.44;5012642;28;20391;-79
2022/04/08 05:10:06;;;;;;;3.90;0.85;;;;;;;9.40;54.13;98050.88;5013873;28;20419;-76
2022/04/08 05:12:39;;;;;;;3.42;1.35;;;;;;;9.51;53.13;98050.81;5012588;28;20484;-78
2022/04/08 05:15:09;;;;;;;3.78;1.30;;;;;;;9.57;52.93;98052.84;5009457;28;20105;-76
2022/04/08 05:17:35;;;;;;;2.97;1.02;;;;;;;9.53;53.50;98053.13;5012534;28;20037;-77
2022/04/08 05:20:05;;;;;;;2.78;1.20;;;;;;;9.60;52.88;98069.63;4995909;28;20061;-76
2022/04/08 05:22:34;;;;;;;3.80;1.10;;;;;;;9.61;53.52;98070.38;4995465;28;20028;-77
2022/04/08 05:25:03;;;;;;;3.75;1.20;;;;;;;9.59;53.97;98072.97;5012568;28;20030;-78
2022/04/08 05:27:41;;;;;;;3.63;0.93;;;;;;;9.53;53.38;98067.31;5012137;28;21033;-78
2022/04/08 05:30:16;;;;;;;2.05;1.00;;;;;;;9.67;53.77;98097.44;5014113;28;20133;-77
2022/04/08 05:32:42;;;;;;;7.35;1.40;;;;;;;9.58;52.54;98106.31;4996414;28;20109;-77
2022/04/08 05:35:09;;;;;;;3.17;1.50;;;;;;;9.65;52.60;98100.06;4996016;28;20423;-78
2022/04/08 05:37:39;;;;;;;4.22;1.27;;;;;;;9.85;52.28;98116.72;5011768;28;20038;-76
2022/04/08 05:40:07;;;;;;;2.58;1.02;;;;;;;10.11;51.65;98127.66;4979944;28;20364;-76
2022/04/08 05:42:32;;;;;;;4.60;1.20;;;;;;;10.19;50.84;98110.78;5012281;28;20069;-78
2022/04/08 05:45:02;;;;;;;2.78;1.42;;;;;;;10.15;49.57;98108.22;5012591;28;20025;-76
2022/04/08 05:47:31;;;;;;;6.63;1.30;;;;;;;10.31;50.43;98123.63;5013000;28;20104;-78
2022/04/08 05:50:03;;;;;;;4.70;1.40;;;;;;;10.46;50.21;98115.44;5012141;28;20081;-77
2022/04/08 05:52:31;;;;;;;4.10;1.10;;;;;;;10.58;50.70;98145.34;5011969;28;20030;-78
2022/04/08 05:55:00;;;;;;;7.38;1.15;;;;;;;10.55;50.23;98140.75;5013243;28;20054;-79
2022/04/08 05:57:26;;;;;;;3.03;1.23;;;;;;;10.59;49.09;98155.44;5012584;28;20026;-79
2022/04/08 05:59:58;;;;;;;3.40;0.70;;;;;;;10.59;49.56;98157.53;5012030;28;20037;-79
2022/04/08 06:02:24;;;;;;;4.82;1.00;;;;;;;10.59;49.45;98166.84;5012582;28;20136;-78
2022/04/08 06:04:50;;;;;;;3.75;1.08;;;;;;;10.62;49.40;98153.59;5011725;28;20439;-78
2022/04/08 06:07:18;;;;;;;2.83;1.02;;;;;;;10.73;49.50;98157.13;5014167;28;20026;-78
2022/04/08 06:09:45;;;;;;;4.78;1.98;;;;;;;10.96;48.29;98180.44;5014316;28;20034;-79
2022/04/08 06:12:11;;;;;;;3.60;0.98;;;;;;;10.94;48.85;98177.38;5012713;28;20065;-79
2022/04/08 06:14:37;;;;;;;4.47;1.50;;;;;;;10.71;49.18;98176.03;5018125;28;20041;-79
2022/04/08 06:17:03;;;;;;;4.88;1.40;;;;;;;10.58;48.81;98188.06;5016393;28;20027;-78
2022/04/08 06:19:29;;;;;;;2.50;1.30;;;;;;;10.60;49.33;98187.53;5000455;28;20026;-77
2022/04/08 06:21:54;;;;;;;9.50;2.00;;;;;;;10.66;49.86;98191.09;5016696;28;20053;-79
2022/04/08 06:24:21;;;;;;;3.22;1.02;;;;;;;10.65;49.31;98184.66;5015434;28;20065;-80
2022/04/08 06:26:46;;;;;;;7.07;1.40;;;;;;;10.68;50.50;98202.72;5015058;28;20042;-80
2022/04/08 06:29:17;;;;;;;3.05;1.23;;;;;;;10.64;50.41;98197.31;5014501;28;20040;-80
2022/04/08 06:31:43;;;;;;;4.03;1.30;;;;;;;10.77;50.44;98205.22;5016334;28;20025;-80
2022/04/08 06:34:09;;;;;;;4.95;1.40;;;;;;;10.76;49.71;98200.81;5014696;28;20314;-77
2022/04/08 06:36:36;;;;;;;5.18;1.30;;;;;;;10.86;50.55;98215.50;5015523;28;20065;-79
2022/04/08 06:39:01;;;;;;;4.57;1.50;;;;;;;10.98;49.37;98219.78;5015802;28;20034;-79
2022/04/08 06:41:26;;;;;;;3.95;1.25;;;;;;;11.25;48.95;98230.09;5012004;28;20053;-78
2022/04/08 06:43:52;;;;;;;8.50;1.95;;;;;;;11.48;49.49;98222.09;5013535;28;20387;-78
2022/04/08 06:46:17;;;;;;;3.60;1.60;;;;;;;11.64;47.82;98223.97;5014155;28;20066;-77
2022/04/08 06:48:44;;;;;;;2.17;1.30;;;;;;;11.69;47.34;98217.44;5014253;28;20034;-80
2022/04/08 06:51:10;;;;;;;3.47;1.08;;;;;;;11.66;47.89;98210.69;5015810;28;20137;-80
2022/04/08 06:53:36;;;;;;;7.07;1.60;;;;;;;11.61;48.30;98225.81;4995138;28;20029;-79
2022/04/08 06:56:07;;;;;;;3.83;1.30;;;;;;;11.38;47.01;98235.16;5014252;28;20349;-82
2022/04/08 06:58:38;;;;;;;5.38;1.45;;;;;;;11.32;47.27;98229.53;5015142;28;20061;-81
2022/04/08 07:01:10;;;;;;;2.05;1.02;;;;;;;11.11;47.18;98243.47;5013971;28;20029;-81
2022/04/08 07:03:35;;;;;;;2.97;1.58;;;;;;;11.13;48.85;98245.78;5015679;28;20022;-80
2022/04/08 07:06:00;;;;;;;4.20;1.10;;;;;;;11.11;48.73;98240.63;5015542;28;20097;-80
2022/04/08 07:08:26;;;;;;;3.97;1.50;;;;;;;11.02;47.69;98245.91;4998542;28;20057;-80
2022/04/08 07:10:52;;;;;;;2.22;0.98;;;;;;;10.80;48.23;98244.03;5015188;28;20088;-79
2022/04/08 07:13:18;;;;;;;4.57;1.10;;;;;;;10.85;47.68;98231.84;5015908;28;20482;-80
2022/04/08 07:15:58;;;;;;;3.55;1.00;;;;;;;11.00;47.57;98272.06;4998396;28;20113;-81
2022/04/08 07:18:24;;;;;;;5.95;1.60;;;;;;;11.21;47.06;98260.97;5012085;28;20092;-81
2022/04/08 07:20:50;;;;;;;2.80;1.20;;;;;;;11.30;47.81;98274.88;4998600;28;20468;-79
2022/04/08 07:23:16;;;;;;;4.28;1.13;;;;;;;11.35;47.00;98274.03;5016763;28;20101;-77
2022/04/08 07:25:43;;;;;;;3.35;1.13;;;;;;;11.38;47.72;98283.63;5017338;28;20107;-78
2022/04/08 07:28:10;;;;;;;6.63;1.45;;;;;;;11.38;46.58;98283.63;5014459;28;20032;-80
2022/04/08 07:30:36;;;;;;;5.80;1.45;;;;;;;11.29;46.90;98295.38;5013980;28;20046;-80
2022/04/08 07:33:03;;;;;;;2.55;1.20;;;;;;;11.29;47.26;98301.06;5014411;28;20028;-78
2022/04/08 07:35:30;;;;;;;4.10;1.05;;;;;;;11.43;47.86;98297.81;4995390;28;20109;-79
2022/04/08 07:37:56;;;;;;;13.50;1.75;;;;;;;11.66;47.37;98304.03;5007713;28;20018;-80
2022/04/08 07:40:23;;;;;;;3.95;1.30;;;;;;;12.06;46.84;98314.47;4998499;28;20042;-78
2022/04/08 07:42:49;;;;;;;2.25;1.23;;;;;;;12.69;44.94;98307.34;5015282;28;20121;-78
2022/04/08 07:45:17;;;;;;;4.95;1.02;;;;;;;13.21;43.91;98300.31;5015879;28;20029;-78
2022/04/08 07:47:42;;;;;;;4.28;1.10;;;;;;;13.49;41.54;98311.22;5015707;28;20032;-74
2022/04/08 07:50:13;;;;;;;4.75;1.40;;;;;;;14.10;41.69;98305.09;5015139;28;20093;-74
2022/04/08 07:52:39;;;;;;;4.63;1.40;;;;;;;14.91;39.21;98318.66;5014208;28;20038;-73
2022/04/08 07:55:10;;;;;;;3.88;0.80;;;;;;;15.91;38.67;98307.47;5014097;28;20042;-74
2022/04/08 07:57:46;;;;;;;4.80;0.98;;;;;;;17.21;34.54;98295.88;4997652;28;20042;-74
2022/04/08 08:00:15;;;;;;;2.13;1.00;;;;;;;17.60;33.23;98293.78;5014060;28;20033;-74
2022/04/08 08:02:42;;;;;;;3.80;1.23;;;;;;;17.97;33.22;98312.34;5014066;28;20830;-73
2022/04/08 08:05:09;;;;;;;2.30;1.13;;;;;;;18.76;31.72;98310.94;5013160;28;20042;-71
2022/04/08 08:07:50;;;;;;;2.42;0.93;;;;;;;18.39;32.27;98309.75;4997397;28;20033;-73
2022/04/08 08:10:28;;;;;;;3.13;0.63;;;;;;;18.80;30.30;98329.38;5014339;28;20038;-72
2022/04/08 08:12:55;;;;;;;2.50;0.57;;;;;;;17.87;31.95;98326.56;5013582;28;20463;-74
2022/04/08 08:15:23;;;;;;;1.50;0.60;;;;;;;17.84;31.80;98333.50;4997596;28;20104;-72
2022/04/08 08:17:50;;;;;;;4.28;0.57;;;;;;;18.41;31.50;98327.19;5015002;28;20026;-74
2022/04/08 08:20:22;;;;;;;4.82;1.15;;;;;;;18.67;31.27;98326.75;4997447;28;20042;-74
2022/04/08 08:22:53;;;;;;;3.22;0.60;;;;;;;18.60;31.05;98338.34;5013453;28;20037;-73
2022/04/08 08:25:19;;;;;;;2.90;0.90;;;;;;;18.05;31.90;98345.56;5013712;28;20029;-74
2022/04/08 08:27:48;;;;;;;4.32;0.77;;;;;;;17.87;32.59;98351.72;5012794;28;20038;-74
2022/04/08 08:30:15;;;;;;;2.78;0.70;;;;;;;17.96;33.09;98351.13;5013331;28;20624;-72
2022/04/08 08:32:47;;;;;;;2.70;1.00;;;;;;;18.60;31.18;98344.09;5013381;28;20029;-74
2022/04/08 08:35:21;;;;;;;1.52;0.70;;;;;;;18.73;31.51;98358.25;5013558;28;20092;-72
2022/04/08 08:37:48;;;;;;;1.55;0.70;;;;;;;19.25;31.56;98359.31;5012923;28;20030;-73
2022/04/08 08:40:24;;;;;;;3.75;0.85;;;;;;;19.47;29.99;98381.53;5013064;28;20080;-74
2022/04/08 08:42:49;;;;;;;4.78;0.80;;;;;;;19.25;29.66;98377.41;5013332;28;20125;-73
2022/04/08 08:45:17;;;;;;;2.08;0.60;;;;;;;19.07;30.92;98381.56;5012895;28;20093;-73
2022/04/08 08:47:59;;;;;;;2.50;0.85;;;;;;;18.84;31.04;98380.91;5012026;28;20483;-74
2022/04/08 08:50:25;;;;;;;2.58;0.70;;;;;;;18.44;30.80;98375.06;5012790;28;20049;-74
2022/04/08 08:52:53;;;;;;;3.83;1.30;;;;;;;17.47;31.58;98389.69;5014059;28;20030;-74
2022/04/08 08:55:20;;;;;;;3.20;0.63;;;;;;;16.99;32.98;98388.66;5014113;28;20433;-74
2022/04/08 08:57:47;;;;;;;3.83;0.52;;;;;;;16.28;33.93;98407.44;4995895;28;20038;-71
2022/04/08 09:00:16;;;;;;;4.68;0.77;;;;;;;16.16;35.02;98394.75;4995960;28;20075;-73
2022/04/08 09:02:43;;;;;;;2.90;0.70;;;;;;;16.32;34.96;98402.13;4995400;28;20041;-74
2022/04/08 09:05:14;;;;;;;2.85;0.70;;;;;;;16.14;34.25;98419.59;5013066;28;20026;-73
2022/04/08 09:07:41;;;;;;;4.43;0.68;;;;;;;15.63;35.65;98425.13;5011007;28;20037;-72
2022/04/08 09:10:07;;;;;;;1.92;0.70;;;;;;;15.37;36.16;98411.66;5012566;28;20523;-74
2022/04/08 09:12:32;;;;;;;3.20;1.00;;;;;;;15.14;36.45;98438.00;5012369;28;20116;-74
2022/04/08 09:15:13;;;;;;;4.03;0.85;;;;;;;14.36;37.22;98427.44;5012292;28;20065;-74
2022/04/08 09:17:40;;;;;;;3.42;0.57;;;;;;;13.98;38.14;98454.69;5012371;28;20041;-73
2022/04/08 09:20:06;;;;;;;4.97;0.95;;;;;;;13.90;40.19;98471.00;5012549;28;20116;-73
2022/04/08 09:22:36;;;;;;;1.75;1.05;;;;;;;14.08;41.87;98484.44;5013746;28;20109;-72
2022/04/08 09:25:14;;;;;;;5.15;1.92;;;;;;;14.46;40.88;98485.84;5016135;28;20457;-72
2022/04/08 09:27:43;;;;;;;3.28;1.20;;;;;;;14.74;41.24;98470.19;5011617;28;20113;-73
2022/04/08 09:30:09;;;;;;;7.35;1.80;;;;;;;14.86;40.75;98483.72;5013392;28;20030;-72
2022/04/08 09:32:35;;;;;;;6.13;1.15;;;;;;;15.19;41.58;98482.22;5012226;28;20041;-74
2022/04/08 09:35:06;;;;;;;4.53;1.50;;;;;;;16.23;39.59;98488.06;4996175;28;20037;-72
2022/04/08 09:37:32;;;;;;;4.38;1.42;;;;;;;16.41;39.00;98489.91;5009887;28;20129;-73
2022/04/08 09:40:05;;;;;;;3.83;1.10;;;;;;;16.56;38.12;98487.16;5017290;28;20284;-72
2022/04/08 09:42:47;;;;;;;1.15;1.00;;;;;;;16.54;38.62;98492.69;5011885;28;20069;-73
2022/04/08 09:45:13;;;;;;;4.32;1.70;;;;;;;16.59;38.20;98496.75;5013043;28;20144;-72
2022/04/08 09:47:40;;;;;;;16.52;2.97;;;;;;;16.26;38.83;98479.06;5010697;28;20033;-72
2022/04/08 09:50:10;;;;;;;18.13;2.13;;;;;;;17.05;38.52;98492.03;5012805;28;20464;-74
2022/04/08 09:52:39;;;;;;;3.00;1.10;;;;;;;17.51;37.57;98490.09;5013499;28;20040;-74
2022/04/08 09:55:10;;;;;;;2.17;1.02;;;;;;;17.47;37.45;98489.69;5013051;28;20040;-72
2022/04/08 09:57:39;;;;;;;2.50;1.20;;;;;;;17.48;37.32;98485.47;5010134;28;20045;-73
2022/04/08 10:00:09;;;;;;;5.70;1.50;;;;;;;17.55;35.87;98476.09;5011869;28;20041;-73
2022/04/08 10:02:39;;;;;;;2.25;1.08;;;;;;;17.39;34.91;98483.91;5012077;28;20525;-74
2022/04/08 10:05:07;;;;;;;3.28;1.10;;;;;;;17.01;35.88;98483.78;5013243;28;20022;-73
2022/04/08 10:07:32;;;;;;;1.52;1.00;;;;;;;16.80;36.26;98485.97;5012935;28;20049;-72
2022/04/08 10:10:06;;;;;;;1.17;0.80;;;;;;;16.95;34.89;98486.06;5011816;28;20034;-74
2022/04/08 10:12:40;;;;;;;5.25;1.02;;;;;;;16.65;35.03;98478.03;5013404;28;20101;-73
2022/04/08 10:15:27;;;;;;;6.63;0.90;;;;;;;16.71;36.37;98490.16;5012738;28;20033;-73
2022/04/08 10:18:14;;;;;;;2.95;0.80;;;;;;;17.19;34.56;98479.06;5009429;28;20034;-72
2022/04/08 10:20:40;;;;;;;3.75;1.40;;;;;;;17.35;35.36;98483.53;5011698;28;20030;-75
2022/04/08 10:23:14;;;;;;;4.35;1.38;;;;;;;17.44;32.61;98490.84;5012769;28;20455;-75
2022/04/08 10:25:50;;;;;;;8.02;1.40;;;;;;;17.36;33.81;98490.06;5011665;28;20044;-76
2022/04/08 10:28:15;;;;;;;5.30;0.90;;;;;;;16.88;32.90;98501.16;4995797;28;20030;-76
2022/04/08 10:30:49;;;;;;;5.00;1.27;;;;;;;15.30;40.57;98513.50;5012649;28;20041;-76
2022/04/08 10:33:31;;;;;;;2.03;1.23;;;;;;;14.11;42.38;98520.59;4995231;28;20050;-76
2022/04/08 10:36:01;;;;;;;;;;;;;;;12.98;47.68;98540.72;5011750;28;20133;-77
2022/04/08 10:38:37;;;;;;;1.65;0.80;;;;;;;12.42;53.08;98531.25;5011538;28;19935;-73
2022/04/08 10:41:11;;;;;;;3.60;1.27;;;;;;;12.29;53.12;98525.41;5011399;28;20034;-73
2022/04/08 10:43:55;;;;;;;2.30;0.80;;;;;;;12.57;55.48;98533.69;5012474;28;20442;-74
2022/04/08 10:46:29;;;;;;;2.35;1.00;;;;;;;12.84;51.62;98513.34;5012786;28;20037;-73
2022/04/08 10:48:56;;;;;;;0.82;0.65;;;;;;;13.07;53.50;98505.28;4993317;28;20383;-73
2022/04/08 10:51:23;;;;;;;11.00;2.05;;;;;;;13.27;51.46;98501.88;4992785;28;20046;-73
2022/04/08 10:53:51;;;;;;;2.70;0.98;;;;;;;13.34;48.45;98484.09;4993377;28;20037;-74
2022/04/08 10:56:17;;;;;;;2.05;1.10;;;;;;;13.26;45.85;98479.56;4997856;28;20046;-74
2022/04/08 10:58:44;;;;;;;3.35;1.10;;;;;;;13.48;46.46;98487.03;5011421;28;20061;-74
2022/04/08 11:01:22;;;;;;;0.68;0.55;;;;;;;13.57;42.55;98473.09;5015886;28;20029;-74
2022/04/08 11:04:07;;;;;;;2.70;1.17;;;;;;;13.61;41.95;98482.16;5015801;28;20041;-72
2022/04/08 11:06:38;;;;;;;2.30;0.90;;;;;;;13.93;40.35;98458.44;5015589;28;20025;-74
2022/04/08 11:09:15;;;;;;;2.63;0.52;;;;;;;13.99;39.22;98459.13;5009226;28;20112;-74
2022/04/08 11:11:46;;;;;;;1.25;0.60;;;;;;;14.15;39.71;98476.00;5015122;28;20022;-75
2022/04/08 11:14:13;;;;;;;;;;;;;;;14.35;40.35;98471.72;5016801;28;20029;-74
2022/04/08 11:16:40;;;;;;;1.17;0.50;;;;;;;14.77;37.64;98446.13;5033909;28;19927;-73
2022/04/08 11:19:08;;;;;;;3.70;0.65;;;;;;;15.06;37.44;98477.28;5001938;28;20095;-73
2022/04/08 11:21:36;;;;;;;0.45;0.43;;;;;;;15.14;35.48;98480.25;5015701;28;20065;-75
2022/04/08 11:24:04;;;;;;;3.97;1.20;;;;;;;15.16;33.62;98471.84;5014736;28;20037;-74
2022/04/08 11:26:32;;;;;;;2.00;0.70;;;;;;;14.98;33.84;98470.69;5014795;28;20136;-72
2022/04/08 11:29:12;;;;;;;1.10;0.50;;;;;;;15.00;34.58;98465.16;5014594;28;20093;-74
2022/04/08 11:31:50;;;;;;;6.97;1.33;;;;;;;15.08;34.59;98448.06;5014725;28;20033;-74
2022/04/08 11:34:18;;;;;;;1.60;0.70;;;;;;;15.20;34.92;98465.78;5014991;28;20046;-75
2022/04/08 11:36:44;;;;;;;3.65;1.05;;;;;;;15.20;36.49;98472.28;5014377;28;20061;-72
2022/04/08 11:39:30;;;;;;;2.30;0.90;;;;;;;15.33;35.58;98452.19;5015501;28;20505;-73
2022/04/08 11:41:59;;;;;;;3.10;0.90;;;;;;;15.31;35.45;98466.28;5014153;28;20029;-73
2022/04/08 11:44:28;;;;;;;2.88;1.25;;;;;;;15.46;36.61;98465.69;4997841;28;20038;-74